Decoded Metar for KHYA (HYANNIS in MA, USA) (IATA:HYA) | Meteo·Mobile Aviation Weather
aviador You're here:

KHYA Decoded Metar

HYANNIS in MA, USA
Report Time2019-02-19 12:56:00
UTC Time2019-02-19 13:32:17
Flight Rules vfr VFR
Wind320° at 07 Gusting to 16 kt
W.Decomp.*RWY 33: 7.0 kt HW 0.7 kt RCW
RWY 06: 0.7 kt HW 7 kt LCW
W.Rank320° ranks 23
Current wind is below 320° avg. (7.8)
Visibility9999 m
Phenomena:N/A
Clouds:N/A
Expected CloudBase > 2,800 ft AGL from Temp-Dew spread
CeilingNone
Temp-6°C (ISA -21)
Dew Point-13°C (58% RH)
AAT-11.8°C
QNH1029 hPa
Density Alt-3,028 ft
Elevation72 ft
Report Wrong Elevation
Raw Report
KHYA 191256Z 32007G16KT 10SM CLR M06/M13 A3040 RMK AO2 SLP296
T10561128=

Extra information for KHYA:More info

Metar Taf Metar & Taf Last 4 Metars F.Rules Stats Wind Profile Meteogram Temp Stats Airport Information Weather charts Add Link Nearby VenuesMetar ALERT Operation Metar Decoded Social comments

AIRNAV info for KHYA